sensor_id;sensor_type;location;lat;lon;timestamp;P1;durP1;ratioP1;P2;durP2;ratioP2
77099;SDS011;66602;48.922;2.414;2023-07-31T00:02:02;2.80;;;2.60;;
77099;SDS011;66602;48.922;2.414;2023-07-31T00:04:27;5.47;;;2.67;;
77099;SDS011;66602;48.922;2.414;2023-07-31T00:06:53;2.63;;;2.42;;
77099;SDS011;66602;48.922;2.414;2023-07-31T00:09:18;6.47;;;2.10;;
77099;SDS011;66602;48.922;2.414;2023-07-31T00:11:44;7.20;;;2.65;;
77099;SDS011;66602;48.922;2.414;2023-07-31T00:14:09;2.75;;;2.40;;
77099;SDS011;66602;48.922;2.414;2023-07-31T00:16:34;4.90;;;2.30;;
77099;SDS011;66602;48.922;2.414;2023-07-31T00:19:00;2.55;;;2.35;;
77099;SDS011;66602;48.922;2.414;2023-07-31T00:21:26;2.85;;;2.65;;
77099;SDS011;66602;48.922;2.414;2023-07-31T00:23:51;5.85;;;2.58;;
77099;SDS011;66602;48.922;2.414;2023-07-31T00:26:17;5.93;;;2.47;;
77099;SDS011;66602;48.922;2.414;2023-07-31T00:28:42;3.92;;;2.55;;
77099;SDS011;66602;48.922;2.414;2023-07-31T00:31:08;4.72;;;2.83;;
77099;SDS011;66602;48.922;2.414;2023-07-31T00:33:34;2.88;;;2.47;;
77099;SDS011;66602;48.922;2.414;2023-07-31T00:36:01;3.92;;;2.63;;
77099;SDS011;66602;48.922;2.414;2023-07-31T00:38:27;3.78;;;2.60;;
77099;SDS011;66602;48.922;2.414;2023-07-31T00:40:53;2.42;;;2.30;;
77099;SDS011;66602;48.922;2.414;2023-07-31T00:43:18;2.80;;;2.40;;
77099;SDS011;66602;48.922;2.414;2023-07-31T00:45:44;4.68;;;2.80;;
77099;SDS011;66602;48.922;2.414;2023-07-31T00:48:09;4.15;;;3.03;;
77099;SDS011;66602;48.922;2.414;2023-07-31T00:50:35;2.90;;;2.60;;
77099;SDS011;66602;48.922;2.414;2023-07-31T00:53:01;2.70;;;2.50;;
77099;SDS011;66602;48.922;2.414;2023-07-31T00:55:26;4.68;;;2.28;;
77099;SDS011;66602;48.922;2.414;2023-07-31T00:57:52;2.97;;;2.67;;
77099;SDS011;66602;48.922;2.414;2023-07-31T01:00:20;2.85;;;2.30;;
77099;SDS011;66602;48.922;2.414;2023-07-31T01:02:46;3.55;;;2.50;;
77099;SDS011;66602;48.922;2.414;2023-07-31T01:05:13;3.85;;;2.83;;
77099;SDS011;66602;48.922;2.414;2023-07-31T01:10:32;3.60;;;2.60;;
77099;SDS011;66602;48.922;2.414;2023-07-31T01:13:05;3.45;;;2.20;;
77099;SDS011;66602;48.922;2.414;2023-07-31T01:15:31;5.40;;;2.50;;
77099;SDS011;66602;48.922;2.414;2023-07-31T01:17:56;3.72;;;2.38;;
77099;SDS011;66602;48.922;2.414;2023-07-31T01:20:26;2.78;;;2.50;;
77099;SDS011;66602;48.922;2.414;2023-07-31T01:28:32;5.72;;;2.50;;
77099;SDS011;66602;48.922;2.414;2023-07-31T01:31:08;5.35;;;2.33;;
77099;SDS011;66602;48.922;2.414;2023-07-31T01:33:36;2.83;;;2.15;;
77099;SDS011;66602;48.922;2.414;2023-07-31T01:36:02;2.85;;;2.60;;
77099;SDS011;66602;48.922;2.414;2023-07-31T01:38:28;5.20;;;2.53;;
77099;SDS011;66602;48.922;2.414;2023-07-31T01:40:54;3.05;;;2.58;;
77099;SDS011;66602;48.922;2.414;2023-07-31T01:43:20;2.10;;;2.00;;
77099;SDS011;66602;48.922;2.414;2023-07-31T01:45:45;4.13;;;2.50;;
77099;SDS011;66602;48.922;2.414;2023-07-31T01:48:11;2.60;;;2.40;;
77099;SDS011;66602;48.922;2.414;2023-07-31T01:50:36;3.55;;;2.13;;
77099;SDS011;66602;48.922;2.414;2023-07-31T01:53:02;5.78;;;2.78;;
77099;SDS011;66602;48.922;2.414;2023-07-31T01:55:27;6.03;;;2.35;;
77099;SDS011;66602;48.922;2.414;2023-07-31T01:57:53;3.05;;;2.63;;
77099;SDS011;66602;48.922;2.414;2023-07-31T02:00:18;2.30;;;2.10;;
77099;SDS011;66602;48.922;2.414;2023-07-31T02:02:44;6.05;;;2.60;;
77099;SDS011;66602;48.922;2.414;2023-07-31T02:05:10;2.53;;;2.15;;
77099;SDS011;66602;48.922;2.414;2023-07-31T02:07:35;2.38;;;2.17;;
77099;SDS011;66602;48.922;2.414;2023-07-31T02:10:01;3.72;;;2.75;;
77099;SDS011;66602;48.922;2.414;2023-07-31T02:12:26;4.80;;;2.53;;
77099;SDS011;66602;48.922;2.414;2023-07-31T02:14:52;4.13;;;2.10;;
77099;SDS011;66602;48.922;2.414;2023-07-31T02:17:17;4.13;;;2.47;;
77099;SDS011;66602;48.922;2.414;2023-07-31T02:19:43;2.63;;;2.10;;
77099;SDS011;66602;48.922;2.414;2023-07-31T02:22:08;2.72;;;2.47;;
77099;SDS011;66602;48.922;2.414;2023-07-31T02:24:34;3.55;;;2.30;;
77099;SDS011;66602;48.922;2.414;2023-07-31T02:26:59;2.75;;;2.30;;
77099;SDS011;66602;48.922;2.414;2023-07-31T02:29:25;3.15;;;1.98;;
77099;SDS011;66602;48.922;2.414;2023-07-31T02:31:50;2.20;;;2.00;;
77099;SDS011;66602;48.922;2.414;2023-07-31T02:34:16;3.85;;;2.33;;
77099;SDS011;66602;48.922;2.414;2023-07-31T02:36:41;3.15;;;2.00;;
77099;SDS011;66602;48.922;2.414;2023-07-31T02:39:07;5.78;;;1.77;;
77099;SDS011;66602;48.922;2.414;2023-07-31T02:41:32;3.08;;;2.30;;
77099;SDS011;66602;48.922;2.414;2023-07-31T02:43:58;2.78;;;1.80;;
77099;SDS011;66602;48.922;2.414;2023-07-31T02:46:23;2.95;;;2.75;;
77099;SDS011;66602;48.922;2.414;2023-07-31T02:48:50;2.17;;;2.08;;
77099;SDS011;66602;48.922;2.414;2023-07-31T02:51:16;1.92;;;1.83;;
77099;SDS011;66602;48.922;2.414;2023-07-31T02:53:42;2.42;;;1.88;;
77099;SDS011;66602;48.922;2.414;2023-07-31T02:56:07;3.10;;;1.98;;
77099;SDS011;66602;48.922;2.414;2023-07-31T02:58:33;2.10;;;1.73;;
77099;SDS011;66602;48.922;2.414;2023-07-31T03:00:58;2.10;;;1.88;;
77099;SDS011;66602;48.922;2.414;2023-07-31T03:03:24;2.05;;;1.90;;
77099;SDS011;66602;48.922;2.414;2023-07-31T03:05:50;2.08;;;1.98;;
77099;SDS011;66602;48.922;2.414;2023-07-31T03:08:15;3.33;;;2.10;;
77099;SDS011;66602;48.922;2.414;2023-07-31T03:10:41;1.90;;;1.58;;
77099;SDS011;66602;48.922;2.414;2023-07-31T03:13:06;2.10;;;1.90;;
77099;SDS011;66602;48.922;2.414;2023-07-31T03:15:32;2.53;;;1.80;;
77099;SDS011;66602;48.922;2.414;2023-07-31T03:17:58;1.83;;;1.70;;
77099;SDS011;66602;48.922;2.414;2023-07-31T03:20:23;2.22;;;2.03;;
77099;SDS011;66602;48.922;2.414;2023-07-31T03:22:49;2.97;;;1.67;;
77099;SDS011;66602;48.922;2.414;2023-07-31T03:25:14;4.03;;;2.08;;
77099;SDS011;66602;48.922;2.414;2023-07-31T03:27:40;1.98;;;1.85;;
77099;SDS011;66602;48.922;2.414;2023-07-31T03:30:06;3.10;;;2.60;;
77099;SDS011;66602;48.922;2.414;2023-07-31T03:32:32;2.80;;;1.70;;
77099;SDS011;66602;48.922;2.414;2023-07-31T03:34:57;1.88;;;1.65;;
77099;SDS011;66602;48.922;2.414;2023-07-31T03:37:23;2.00;;;1.88;;
77099;SDS011;66602;48.922;2.414;2023-07-31T03:39:49;2.38;;;1.85;;
77099;SDS011;66602;48.922;2.414;2023-07-31T03:42:14;3.65;;;1.85;;
77099;SDS011;66602;48.922;2.414;2023-07-31T03:44:40;4.30;;;1.90;;
77099;SDS011;66602;48.922;2.414;2023-07-31T03:47:05;2.30;;;2.10;;
77099;SDS011;66602;48.922;2.414;2023-07-31T03:49:31;1.92;;;1.83;;
77099;SDS011;66602;48.922;2.414;2023-07-31T03:51:57;5.32;;;1.98;;
77099;SDS011;66602;48.922;2.414;2023-07-31T03:54:23;2.20;;;2.00;;
77099;SDS011;66602;48.922;2.414;2023-07-31T03:56:48;4.65;;;1.98;;
77099;SDS011;66602;48.922;2.414;2023-07-31T03:59:14;4.35;;;2.22;;
77099;SDS011;66602;48.922;2.414;2023-07-31T04:01:39;2.35;;;1.90;;
77099;SDS011;66602;48.922;2.414;2023-07-31T04:04:05;1.90;;;1.80;;
77099;SDS011;66602;48.922;2.414;2023-07-31T04:06:30;4.57;;;2.05;;
77099;SDS011;66602;48.922;2.414;2023-07-31T04:08:56;2.53;;;2.03;;
77099;SDS011;66602;48.922;2.414;2023-07-31T04:11:21;4.28;;;2.08;;
77099;SDS011;66602;48.922;2.414;2023-07-31T04:13:47;3.65;;;2.03;;
77099;SDS011;66602;48.922;2.414;2023-07-31T04:16:13;5.10;;;2.20;;
77099;SDS011;66602;48.922;2.414;2023-07-31T04:18:39;6.97;;;2.47;;
77099;SDS011;66602;48.922;2.414;2023-07-31T04:21:04;2.38;;;2.17;;
77099;SDS011;66602;48.922;2.414;2023-07-31T04:23:30;2.20;;;2.08;;
77099;SDS011;66602;48.922;2.414;2023-07-31T04:25:55;3.00;;;2.20;;
77099;SDS011;66602;48.922;2.414;2023-07-31T04:28:21;3.13;;;1.85;;
77099;SDS011;66602;48.922;2.414;2023-07-31T04:30:47;3.30;;;1.98;;
77099;SDS011;66602;48.922;2.414;2023-07-31T04:33:13;2.03;;;1.92;;
77099;SDS011;66602;48.922;2.414;2023-07-31T04:35:38;3.03;;;2.05;;
77099;SDS011;66602;48.922;2.414;2023-07-31T04:38:04;4.95;;;2.53;;
77099;SDS011;66602;48.922;2.414;2023-07-31T04:40:29;2.47;;;2.28;;
77099;SDS011;66602;48.922;2.414;2023-07-31T04:42:55;3.45;;;2.58;;
77099;SDS011;66602;48.922;2.414;2023-07-31T04:45:21;4.28;;;2.20;;
77099;SDS011;66602;48.922;2.414;2023-07-31T04:47:46;2.75;;;2.38;;
77099;SDS011;66602;48.922;2.414;2023-07-31T04:50:12;3.92;;;2.85;;
77099;SDS011;66602;48.922;2.414;2023-07-31T04:52:37;2.78;;;2.40;;
77099;SDS011;66602;48.922;2.414;2023-07-31T04:55:03;3.72;;;2.58;;
77099;SDS011;66602;48.922;2.414;2023-07-31T04:57:28;2.92;;;2.10;;
77099;SDS011;66602;48.922;2.414;2023-07-31T04:59:54;3.53;;;2.47;;
77099;SDS011;66602;48.922;2.414;2023-07-31T05:02:20;6.07;;;2.60;;
77099;SDS011;66602;48.922;2.414;2023-07-31T05:04:46;5.00;;;2.33;;
77099;SDS011;66602;48.922;2.414;2023-07-31T05:07:12;6.80;;;2.78;;
77099;SDS011;66602;48.922;2.414;2023-07-31T05:09:37;3.50;;;2.83;;
77099;SDS011;66602;48.922;2.414;2023-07-31T05:12:04;3.05;;;2.60;;
77099;SDS011;66602;48.922;2.414;2023-07-31T05:14:31;5.90;;;2.60;;
77099;SDS011;66602;48.922;2.414;2023-07-31T05:16:57;6.20;;;3.25;;
77099;SDS011;66602;48.922;2.414;2023-07-31T05:19:22;4.50;;;2.85;;
77099;SDS011;66602;48.922;2.414;2023-07-31T05:21:48;5.10;;;2.70;;
77099;SDS011;66602;48.922;2.414;2023-07-31T05:24:14;3.78;;;3.33;;
77099;SDS011;66602;48.922;2.414;2023-07-31T05:26:39;7.30;;;3.05;;
77099;SDS011;66602;48.922;2.414;2023-07-31T05:29:05;5.72;;;3.08;;
77099;SDS011;66602;48.922;2.414;2023-07-31T05:31:30;5.25;;;3.05;;
77099;SDS011;66602;48.922;2.414;2023-07-31T05:33:57;5.28;;;2.92;;
77099;SDS011;66602;48.922;2.414;2023-07-31T05:36:23;3.83;;;3.40;;
77099;SDS011;66602;48.922;2.414;2023-07-31T05:38:48;5.63;;;3.13;;
77099;SDS011;66602;48.922;2.414;2023-07-31T05:41:14;5.15;;;3.15;;
77099;SDS011;66602;48.922;2.414;2023-07-31T05:43:40;4.50;;;3.28;;
77099;SDS011;66602;48.922;2.414;2023-07-31T05:46:06;4.53;;;2.83;;
77099;SDS011;66602;48.922;2.414;2023-07-31T05:48:32;9.05;;;3.00;;
77099;SDS011;66602;48.922;2.414;2023-07-31T05:50:59;8.23;;;4.30;;
77099;SDS011;66602;48.922;2.414;2023-07-31T05:53:25;4.00;;;3.15;;
77099;SDS011;66602;48.922;2.414;2023-07-31T05:55:50;7.43;;;3.25;;
77099;SDS011;66602;48.922;2.414;2023-07-31T05:58:16;8.57;;;3.17;;
77099;SDS011;66602;48.922;2.414;2023-07-31T06:00:41;4.53;;;3.55;;
77099;SDS011;66602;48.922;2.414;2023-07-31T06:03:07;6.95;;;3.70;;
77099;SDS011;66602;48.922;2.414;2023-07-31T06:05:32;6.15;;;3.38;;
77099;SDS011;66602;48.922;2.414;2023-07-31T06:07:58;6.30;;;3.70;;
77099;SDS011;66602;48.922;2.414;2023-07-31T06:10:23;5.32;;;3.92;;
77099;SDS011;66602;48.922;2.414;2023-07-31T06:12:49;11.88;;;4.05;;
77099;SDS011;66602;48.922;2.414;2023-07-31T06:15:14;8.07;;;4.18;;
77099;SDS011;66602;48.922;2.414;2023-07-31T06:17:40;4.32;;;3.58;;
77099;SDS011;66602;48.922;2.414;2023-07-31T06:20:06;5.35;;;3.55;;
77099;SDS011;66602;48.922;2.414;2023-07-31T06:22:32;7.80;;;3.97;;
77099;SDS011;66602;48.922;2.414;2023-07-31T06:24:58;7.15;;;4.68;;
77099;SDS011;66602;48.922;2.414;2023-07-31T06:27:23;8.63;;;4.22;;
77099;SDS011;66602;48.922;2.414;2023-07-31T06:29:49;4.38;;;3.97;;
77099;SDS011;66602;48.922;2.414;2023-07-31T06:32:15;9.18;;;4.05;;
77099;SDS011;66602;48.922;2.414;2023-07-31T06:34:40;5.45;;;3.28;;
77099;SDS011;66602;48.922;2.414;2023-07-31T06:37:06;9.55;;;3.95;;
77099;SDS011;66602;48.922;2.414;2023-07-31T06:39:31;6.97;;;3.75;;
77099;SDS011;66602;48.922;2.414;2023-07-31T06:41:57;7.47;;;4.35;;
77099;SDS011;66602;48.922;2.414;2023-07-31T06:44:22;5.80;;;4.00;;
77099;SDS011;66602;48.922;2.414;2023-07-31T06:46:48;6.57;;;4.03;;
77099;SDS011;66602;48.922;2.414;2023-07-31T06:49:13;6.35;;;4.00;;
77099;SDS011;66602;48.922;2.414;2023-07-31T06:51:40;10.90;;;3.80;;
77099;SDS011;66602;48.922;2.414;2023-07-31T06:54:06;5.38;;;4.15;;
77099;SDS011;66602;48.922;2.414;2023-07-31T06:56:32;12.45;;;4.10;;
77099;SDS011;66602;48.922;2.414;2023-07-31T06:58:58;7.28;;;4.20;;
77099;SDS011;66602;48.922;2.414;2023-07-31T07:01:23;8.88;;;3.95;;
77099;SDS011;66602;48.922;2.414;2023-07-31T07:03:49;8.60;;;4.32;;
77099;SDS011;66602;48.922;2.414;2023-07-31T07:06:16;10.15;;;3.97;;
77099;SDS011;66602;48.922;2.414;2023-07-31T07:08:42;11.35;;;5.35;;
77099;SDS011;66602;48.922;2.414;2023-07-31T07:11:08;11.60;;;4.78;;
77099;SDS011;66602;48.922;2.414;2023-07-31T07:13:33;6.72;;;4.10;;
77099;SDS011;66602;48.922;2.414;2023-07-31T07:15:59;6.00;;;3.60;;
77099;SDS011;66602;48.922;2.414;2023-07-31T07:18:25;12.40;;;3.80;;
77099;SDS011;66602;48.922;2.414;2023-07-31T07:20:51;10.88;;;4.20;;
77099;SDS011;66602;48.922;2.414;2023-07-31T07:23:18;10.00;;;4.80;;
77099;SDS011;66602;48.922;2.414;2023-07-31T07:25:45;7.32;;;3.75;;
77099;SDS011;66602;48.922;2.414;2023-07-31T07:28:11;7.15;;;4.30;;
77099;SDS011;66602;48.922;2.414;2023-07-31T07:30:36;6.55;;;4.30;;
77099;SDS011;66602;48.922;2.414;2023-07-31T07:33:02;9.25;;;4.30;;
77099;SDS011;66602;48.922;2.414;2023-07-31T07:35:28;6.47;;;4.75;;
77099;SDS011;66602;48.922;2.414;2023-07-31T07:37:53;8.43;;;4.30;;
77099;SDS011;66602;48.922;2.414;2023-07-31T07:40:20;13.80;;;4.22;;
77099;SDS011;66602;48.922;2.414;2023-07-31T07:42:45;11.52;;;4.57;;
77099;SDS011;66602;48.922;2.414;2023-07-31T07:45:11;8.95;;;4.38;;
77099;SDS011;66602;48.922;2.414;2023-07-31T07:47:37;6.25;;;4.00;;
77099;SDS011;66602;48.922;2.414;2023-07-31T07:50:05;4.28;;;3.88;;
77099;SDS011;66602;48.922;2.414;2023-07-31T07:52:31;6.55;;;4.05;;
77099;SDS011;66602;48.922;2.414;2023-07-31T07:54:57;5.35;;;3.90;;
77099;SDS011;66602;48.922;2.414;2023-07-31T07:57:22;8.95;;;4.03;;
77099;SDS011;66602;48.922;2.414;2023-07-31T07:59:48;7.65;;;3.42;;
77099;SDS011;66602;48.922;2.414;2023-07-31T08:02:13;9.25;;;4.60;;
77099;SDS011;66602;48.922;2.414;2023-07-31T08:04:39;6.28;;;3.90;;
77099;SDS011;66602;48.922;2.414;2023-07-31T08:07:04;6.60;;;4.25;;
77099;SDS011;66602;48.922;2.414;2023-07-31T08:09:30;5.78;;;3.95;;
77099;SDS011;66602;48.922;2.414;2023-07-31T08:11:56;8.18;;;3.63;;
77099;SDS011;66602;48.922;2.414;2023-07-31T08:14:26;6.03;;;4.22;;
77099;SDS011;66602;48.922;2.414;2023-07-31T08:16:52;7.50;;;4.25;;
77099;SDS011;66602;48.922;2.414;2023-07-31T08:19:17;5.82;;;3.88;;
77099;SDS011;66602;48.922;2.414;2023-07-31T08:21:43;4.45;;;3.70;;
77099;SDS011;66602;48.922;2.414;2023-07-31T08:24:08;7.43;;;4.25;;
77099;SDS011;66602;48.922;2.414;2023-07-31T08:26:34;9.32;;;3.95;;
77099;SDS011;66602;48.922;2.414;2023-07-31T08:29:00;9.32;;;4.43;;
77099;SDS011;66602;48.922;2.414;2023-07-31T08:31:25;5.75;;;3.95;;
77099;SDS011;66602;48.922;2.414;2023-07-31T08:33:52;6.22;;;3.83;;
77099;SDS011;66602;48.922;2.414;2023-07-31T08:36:19;12.00;;;4.30;;
77099;SDS011;66602;48.922;2.414;2023-07-31T08:38:45;5.22;;;3.72;;
77099;SDS011;66602;48.922;2.414;2023-07-31T08:41:11;7.60;;;3.67;;
77099;SDS011;66602;48.922;2.414;2023-07-31T08:43:38;4.13;;;3.60;;
77099;SDS011;66602;48.922;2.414;2023-07-31T08:46:04;3.67;;;3.28;;
77099;SDS011;66602;48.922;2.414;2023-07-31T08:48:30;9.05;;;3.92;;
77099;SDS011;66602;48.922;2.414;2023-07-31T08:50:57;7.57;;;4.57;;
77099;SDS011;66602;48.922;2.414;2023-07-31T08:53:22;8.55;;;3.88;;
77099;SDS011;66602;48.922;2.414;2023-07-31T08:55:48;4.65;;;3.83;;
77099;SDS011;66602;48.922;2.414;2023-07-31T08:58:14;8.23;;;3.70;;
77099;SDS011;66602;48.922;2.414;2023-07-31T09:00:40;6.63;;;3.70;;
77099;SDS011;66602;48.922;2.414;2023-07-31T09:03:09;4.10;;;3.50;;
77099;SDS011;66602;48.922;2.414;2023-07-31T09:05:40;6.18;;;3.92;;
77099;SDS011;66602;48.922;2.414;2023-07-31T09:08:08;9.85;;;4.20;;
77099;SDS011;66602;48.922;2.414;2023-07-31T09:10:35;8.98;;;4.03;;
77099;SDS011;66602;48.922;2.414;2023-07-31T09:13:00;5.47;;;3.53;;
77099;SDS011;66602;48.922;2.414;2023-07-31T09:15:27;5.00;;;3.72;;
77099;SDS011;66602;48.922;2.414;2023-07-31T09:18:00;5.90;;;3.63;;
77099;SDS011;66602;48.922;2.414;2023-07-31T09:20:26;3.28;;;3.05;;
77099;SDS011;66602;48.922;2.414;2023-07-31T09:22:52;9.43;;;3.75;;
77099;SDS011;66602;48.922;2.414;2023-07-31T09:27:50;4.43;;;3.30;;
77099;SDS011;66602;48.922;2.414;2023-07-31T09:30:19;5.13;;;3.70;;
77099;SDS011;66602;48.922;2.414;2023-07-31T09:32:46;10.90;;;4.30;;
77099;SDS011;66602;48.922;2.414;2023-07-31T09:35:13;8.30;;;3.47;;
77099;SDS011;66602;48.922;2.414;2023-07-31T09:37:42;8.32;;;3.55;;
77099;SDS011;66602;48.922;2.414;2023-07-31T09:40:07;7.13;;;4.03;;
77099;SDS011;66602;48.922;2.414;2023-07-31T09:42:34;9.55;;;4.07;;
77099;SDS011;66602;48.922;2.414;2023-07-31T09:45:09;5.07;;;3.58;;
77099;SDS011;66602;48.922;2.414;2023-07-31T09:47:35;6.05;;;3.63;;
77099;SDS011;66602;48.922;2.414;2023-07-31T09:50:01;9.57;;;4.68;;
77099;SDS011;66602;48.922;2.414;2023-07-31T09:52:26;7.68;;;4.53;;
77099;SDS011;66602;48.922;2.414;2023-07-31T09:54:55;7.40;;;4.03;;
77099;SDS011;66602;48.922;2.414;2023-07-31T09:57:21;7.93;;;3.63;;
77099;SDS011;66602;48.922;2.414;2023-07-31T09:59:48;8.20;;;4.03;;
77099;SDS011;66602;48.922;2.414;2023-07-31T10:02:20;8.55;;;4.15;;
77099;SDS011;66602;48.922;2.414;2023-07-31T10:04:48;6.05;;;4.18;;
77099;SDS011;66602;48.922;2.414;2023-07-31T10:07:16;5.70;;;3.45;;
77099;SDS011;66602;48.922;2.414;2023-07-31T10:09:43;6.68;;;3.45;;
77099;SDS011;66602;48.922;2.414;2023-07-31T10:12:10;6.90;;;3.83;;
77099;SDS011;66602;48.922;2.414;2023-07-31T10:14:39;4.78;;;3.65;;
77099;SDS011;66602;48.922;2.414;2023-07-31T10:17:07;3.78;;;3.40;;
77099;SDS011;66602;48.922;2.414;2023-07-31T10:19:34;4.68;;;4.00;;
77099;SDS011;66602;48.922;2.414;2023-07-31T10:22:00;3.95;;;3.40;;
77099;SDS011;66602;48.922;2.414;2023-07-31T10:24:27;11.50;;;5.20;;
77099;SDS011;66602;48.922;2.414;2023-07-31T10:26:54;12.27;;;5.18;;
77099;SDS011;66602;48.922;2.414;2023-07-31T10:29:23;6.28;;;4.72;;
77099;SDS011;66602;48.922;2.414;2023-07-31T10:31:50;11.27;;;4.35;;
77099;SDS011;66602;48.922;2.414;2023-07-31T10:34:16;5.88;;;4.55;;
77099;SDS011;66602;48.922;2.414;2023-07-31T10:36:41;8.00;;;4.30;;
77099;SDS011;66602;48.922;2.414;2023-07-31T10:39:33;6.68;;;4.43;;
77099;SDS011;66602;48.922;2.414;2023-07-31T10:42:09;8.32;;;4.53;;
77099;SDS011;66602;48.922;2.414;2023-07-31T10:44:38;8.32;;;4.18;;
77099;SDS011;66602;48.922;2.414;2023-07-31T10:47:08;8.80;;;4.63;;
77099;SDS011;66602;48.922;2.414;2023-07-31T10:49:34;11.43;;;4.55;;
77099;SDS011;66602;48.922;2.414;2023-07-31T10:51:59;7.85;;;5.10;;
77099;SDS011;66602;48.922;2.414;2023-07-31T10:54:28;7.18;;;4.53;;
77099;SDS011;66602;48.922;2.414;2023-07-31T10:56:54;7.03;;;5.20;;
77099;SDS011;66602;48.922;2.414;2023-07-31T10:59:19;4.38;;;3.38;;
77099;SDS011;66602;48.922;2.414;2023-07-31T11:01:52;4.97;;;3.78;;
77099;SDS011;66602;48.922;2.414;2023-07-31T11:04:22;7.88;;;5.22;;
77099;SDS011;66602;48.922;2.414;2023-07-31T11:07:00;6.43;;;4.32;;
77099;SDS011;66602;48.922;2.414;2023-07-31T11:09:31;8.38;;;4.28;;
77099;SDS011;66602;48.922;2.414;2023-07-31T11:11:58;6.88;;;3.53;;
77099;SDS011;66602;48.922;2.414;2023-07-31T11:14:24;13.65;;;5.25;;
77099;SDS011;66602;48.922;2.414;2023-07-31T11:16:50;8.68;;;4.28;;
77099;SDS011;66602;48.922;2.414;2023-07-31T11:19:22;6.03;;;3.75;;
77099;SDS011;66602;48.922;2.414;2023-07-31T11:21:49;7.43;;;4.20;;
77099;SDS011;66602;48.922;2.414;2023-07-31T11:24:14;9.60;;;5.70;;
77099;SDS011;66602;48.922;2.414;2023-07-31T11:26:47;8.90;;;4.78;;
77099;SDS011;66602;48.922;2.414;2023-07-31T11:29:16;6.45;;;4.47;;
77099;SDS011;66602;48.922;2.414;2023-07-31T11:31:43;7.60;;;4.22;;
77099;SDS011;66602;48.922;2.414;2023-07-31T11:34:08;8.35;;;4.25;;
77099;SDS011;66602;48.922;2.414;2023-07-31T11:36:34;6.60;;;4.57;;
77099;SDS011;66602;48.922;2.414;2023-07-31T11:39:07;4.40;;;3.42;;
77099;SDS011;66602;48.922;2.414;2023-07-31T11:41:33;8.00;;;4.30;;
77099;SDS011;66602;48.922;2.414;2023-07-31T11:44:00;6.65;;;4.60;;
77099;SDS011;66602;48.922;2.414;2023-07-31T11:46:26;12.20;;;5.00;;
77099;SDS011;66602;48.922;2.414;2023-07-31T11:48:51;9.07;;;5.28;;
77099;SDS011;66602;48.922;2.414;2023-07-31T11:51:17;13.20;;;7.28;;
77099;SDS011;66602;48.922;2.414;2023-07-31T11:53:51;15.10;;;7.10;;
77099;SDS011;66602;48.922;2.414;2023-07-31T11:56:19;10.52;;;5.85;;
77099;SDS011;66602;48.922;2.414;2023-07-31T11:59:06;9.65;;;6.35;;
77099;SDS011;66602;48.922;2.414;2023-07-31T12:01:33;7.68;;;5.75;;
77099;SDS011;66602;48.922;2.414;2023-07-31T12:03:59;8.27;;;5.68;;
77099;SDS011;66602;48.922;2.414;2023-07-31T12:06:37;9.02;;;4.60;;
77099;SDS011;66602;48.922;2.414;2023-07-31T12:09:05;8.52;;;5.20;;
77099;SDS011;66602;48.922;2.414;2023-07-31T12:11:31;11.30;;;5.35;;
77099;SDS011;66602;48.922;2.414;2023-07-31T12:13:56;11.52;;;5.15;;
77099;SDS011;66602;48.922;2.414;2023-07-31T12:16:25;6.65;;;4.72;;
77099;SDS011;66602;48.922;2.414;2023-07-31T12:18:51;11.40;;;6.05;;
77099;SDS011;66602;48.922;2.414;2023-07-31T12:21:17;4.88;;;4.15;;
77099;SDS011;66602;48.922;2.414;2023-07-31T12:23:44;7.18;;;4.70;;
77099;SDS011;66602;48.922;2.414;2023-07-31T12:26:11;11.23;;;5.80;;
77099;SDS011;66602;48.922;2.414;2023-07-31T12:28:41;9.45;;;5.50;;
77099;SDS011;66602;48.922;2.414;2023-07-31T12:31:09;9.18;;;5.50;;
77099;SDS011;66602;48.922;2.414;2023-07-31T12:33:36;7.38;;;5.10;;
77099;SDS011;66602;48.922;2.414;2023-07-31T12:36:06;8.07;;;5.32;;
77099;SDS011;66602;48.922;2.414;2023-07-31T12:38:33;10.63;;;4.90;;
77099;SDS011;66602;48.922;2.414;2023-07-31T12:40:59;10.55;;;5.50;;
77099;SDS011;66602;48.922;2.414;2023-07-31T12:43:24;5.70;;;4.60;;
77099;SDS011;66602;48.922;2.414;2023-07-31T12:45:50;5.70;;;4.40;;
77099;SDS011;66602;48.922;2.414;2023-07-31T12:48:16;8.35;;;4.43;;
77099;SDS011;66602;48.922;2.414;2023-07-31T12:50:41;4.70;;;4.38;;
77099;SDS011;66602;48.922;2.414;2023-07-31T12:53:06;6.45;;;3.80;;
77099;SDS011;66602;48.922;2.414;2023-07-31T12:55:32;4.75;;;4.05;;
77099;SDS011;66602;48.922;2.414;2023-07-31T12:58:02;8.77;;;4.90;;
77099;SDS011;66602;48.922;2.414;2023-07-31T13:00:27;5.47;;;4.20;;
77099;SDS011;66602;48.922;2.414;2023-07-31T13:02:53;10.55;;;4.32;;
77099;SDS011;66602;48.922;2.414;2023-07-31T13:05:19;8.95;;;4.07;;
77099;SDS011;66602;48.922;2.414;2023-07-31T13:07:45;5.95;;;3.63;;
77099;SDS011;66602;48.922;2.414;2023-07-31T13:10:11;5.30;;;4.05;;
77099;SDS011;66602;48.922;2.414;2023-07-31T13:12:37;6.18;;;4.10;;
77099;SDS011;66602;48.922;2.414;2023-07-31T13:15:06;5.07;;;3.72;;
77099;SDS011;66602;48.922;2.414;2023-07-31T13:17:31;5.50;;;3.95;;
77099;SDS011;66602;48.922;2.414;2023-07-31T13:19:57;5.97;;;3.75;;
77099;SDS011;66602;48.922;2.414;2023-07-31T13:22:22;6.50;;;3.90;;
77099;SDS011;66602;48.922;2.414;2023-07-31T13:24:48;5.43;;;3.50;;
77099;SDS011;66602;48.922;2.414;2023-07-31T13:27:14;3.47;;;3.17;;
77099;SDS011;66602;48.922;2.414;2023-07-31T13:29:43;8.95;;;3.92;;
77099;SDS011;66602;48.922;2.414;2023-07-31T13:32:09;4.63;;;3.35;;
77099;SDS011;66602;48.922;2.414;2023-07-31T13:34:35;5.32;;;3.83;;
77099;SDS011;66602;48.922;2.414;2023-07-31T13:37:00;12.75;;;4.07;;
77099;SDS011;66602;48.922;2.414;2023-07-31T13:39:26;7.32;;;3.97;;
77099;SDS011;66602;48.922;2.414;2023-07-31T13:41:51;4.18;;;3.78;;
77099;SDS011;66602;48.922;2.414;2023-07-31T13:44:17;5.10;;;3.72;;
77099;SDS011;66602;48.922;2.414;2023-07-31T13:46:42;4.93;;;3.80;;
77099;SDS011;66602;48.922;2.414;2023-07-31T13:49:07;6.10;;;4.00;;
77099;SDS011;66602;48.922;2.414;2023-07-31T13:51:33;4.47;;;3.58;;
77099;SDS011;66602;48.922;2.414;2023-07-31T13:53:58;5.45;;;3.78;;
77099;SDS011;66602;48.922;2.414;2023-07-31T13:56:24;4.80;;;3.97;;
77099;SDS011;66602;48.922;2.414;2023-07-31T13:58:49;4.13;;;3.70;;
77099;SDS011;66602;48.922;2.414;2023-07-31T14:01:15;6.40;;;5.07;;
77099;SDS011;66602;48.922;2.414;2023-07-31T14:03:41;8.57;;;4.63;;
77099;SDS011;66602;48.922;2.414;2023-07-31T14:06:06;9.75;;;4.80;;
77099;SDS011;66602;48.922;2.414;2023-07-31T14:08:32;8.65;;;5.03;;
77099;SDS011;66602;48.922;2.414;2023-07-31T14:10:57;7.45;;;4.70;;
77099;SDS011;66602;48.922;2.414;2023-07-31T14:13:23;7.28;;;4.63;;
77099;SDS011;66602;48.922;2.414;2023-07-31T14:15:48;4.78;;;4.38;;
77099;SDS011;66602;48.922;2.414;2023-07-31T14:18:14;10.13;;;4.97;;
77099;SDS011;66602;48.922;2.414;2023-07-31T14:20:39;9.10;;;5.55;;
77099;SDS011;66602;48.922;2.414;2023-07-31T14:23:05;10.00;;;5.75;;
77099;SDS011;66602;48.922;2.414;2023-07-31T14:25:30;6.43;;;5.57;;
77099;SDS011;66602;48.922;2.414;2023-07-31T14:27:56;8.80;;;4.47;;
77099;SDS011;66602;48.922;2.414;2023-07-31T14:30:21;5.97;;;4.20;;
77099;SDS011;66602;48.922;2.414;2023-07-31T14:32:47;9.63;;;4.50;;
77099;SDS011;66602;48.922;2.414;2023-07-31T14:35:12;9.98;;;4.45;;
77099;SDS011;66602;48.922;2.414;2023-07-31T14:37:41;12.63;;;5.03;;
77099;SDS011;66602;48.922;2.414;2023-07-31T14:40:09;5.22;;;4.65;;
77099;SDS011;66602;48.922;2.414;2023-07-31T14:42:36;6.35;;;4.25;;
77099;SDS011;66602;48.922;2.414;2023-07-31T14:45:03;6.93;;;4.75;;
77099;SDS011;66602;48.922;2.414;2023-07-31T14:47:29;4.57;;;4.10;;
77099;SDS011;66602;48.922;2.414;2023-07-31T14:49:56;4.35;;;3.95;;
77099;SDS011;66602;48.922;2.414;2023-07-31T14:52:21;6.28;;;3.65;;